createdAt,value
2022-09-17T00:01:31.700Z,4.43
2022-09-17T00:04:04.293Z,4.63
2022-09-17T00:06:36.820Z,4.25
2022-09-17T00:09:07.278Z,6.43
2022-09-17T00:11:37.818Z,5.03
2022-09-17T00:14:09.254Z,4.65
2022-09-17T00:16:39.862Z,5.85
2022-09-17T00:19:13.592Z,4.43
2022-09-17T00:21:42.132Z,3.78
2022-09-17T00:24:12.814Z,5.03
2022-09-17T00:26:41.176Z,4.65
2022-09-17T00:29:09.607Z,4.68
2022-09-17T00:31:38.390Z,4.68
2022-09-17T00:34:09.680Z,4.78
2022-09-17T00:36:39.148Z,4.32
2022-09-17T00:39:09.225Z,4.25
2022-09-17T00:41:39.811Z,4.82
2022-09-17T00:44:41.586Z,4.60
2022-09-17T00:47:15.552Z,4.68
2022-09-17T00:49:45.639Z,5.30
2022-09-17T00:52:19.828Z,4.75
2022-09-17T00:57:19.424Z,4.60
2022-09-17T00:59:47.549Z,4.90
2022-09-17T01:02:16.415Z,5.15
2022-09-17T01:04:45.861Z,5.18
2022-09-17T01:07:28.344Z,4.70
2022-09-17T01:10:03.406Z,5.00
2022-09-17T01:12:57.033Z,5.60
2022-09-17T01:15:35.041Z,5.25
2022-09-17T01:18:21.750Z,4.75
2022-09-17T01:21:15.935Z,5.45
2022-09-17T01:24:02.934Z,5.03
2022-09-17T01:27:07.108Z,6.75
2022-09-17T01:29:54.136Z,4.63
2022-09-17T01:32:30.264Z,6.30
2022-09-17T01:35:06.155Z,5.63
2022-09-17T01:37:38.813Z,6.20
2022-09-17T01:40:13.382Z,4.30
2022-09-17T01:42:48.780Z,5.85
2022-09-17T01:45:22.421Z,5.68
2022-09-17T01:47:56.026Z,5.18
2022-09-17T01:50:28.866Z,4.95
2022-09-17T01:52:59.225Z,4.85
2022-09-17T01:55:32.151Z,4.95
2022-09-17T01:58:04.695Z,5.47
2022-09-17T02:00:33.188Z,5.00
2022-09-17T02:03:08.188Z,5.43
2022-09-17T02:05:40.703Z,5.40
2022-09-17T02:08:12.265Z,6.10
2022-09-17T02:10:45.138Z,4.50
2022-09-17T02:13:18.249Z,5.10
2022-09-17T02:15:52.367Z,5.32
2022-09-17T02:18:27.532Z,5.32
2022-09-17T02:21:08.392Z,6.10
2022-09-17T02:23:42.263Z,6.70
2022-09-17T02:26:16.235Z,6.53
2022-09-17T02:28:49.241Z,5.53
2022-09-17T02:31:17.650Z,4.60
2022-09-17T02:33:51.667Z,5.13
2022-09-17T02:36:21.404Z,4.88
2022-09-17T02:38:49.425Z,4.82
2022-09-17T02:41:21.917Z,5.57
2022-09-17T02:43:58.715Z,4.95
2022-09-17T02:46:52.990Z,4.60
2022-09-17T02:49:33.500Z,3.95
2022-09-17T02:52:13.809Z,3.90
2022-09-17T02:54:52.877Z,3.80
2022-09-17T02:57:29.164Z,3.30
2022-09-17T03:00:05.296Z,2.88
2022-09-17T03:02:38.061Z,3.63
2022-09-17T03:05:08.604Z,3.00
2022-09-17T03:07:37.632Z,2.78
2022-09-17T03:10:06.965Z,3.58
2022-09-17T03:12:37.228Z,3.78
2022-09-17T03:15:05.814Z,4.53
2022-09-17T03:17:33.922Z,4.72
2022-09-17T03:20:01.932Z,6.05
2022-09-17T03:22:31.362Z,6.15
2022-09-17T03:24:59.421Z,4.72
2022-09-17T03:27:27.634Z,7.45
2022-09-17T03:29:55.612Z,5.75
2022-09-17T03:32:23.848Z,4.25
2022-09-17T03:34:51.904Z,4.40
2022-09-17T03:37:20.078Z,3.88
2022-09-17T03:39:49.511Z,4.00
2022-09-17T03:42:18.053Z,4.15
2022-09-17T03:44:46.053Z,3.85
2022-09-17T03:47:17.024Z,3.70
2022-09-17T03:49:45.081Z,5.88
2022-09-17T03:52:13.277Z,5.22
2022-09-17T03:54:41.380Z,3.83
2022-09-17T03:57:10.769Z,4.55
2022-09-17T03:59:39.030Z,4.13
2022-09-17T04:02:07.184Z,4.63
2022-09-17T04:04:36.247Z,6.28
2022-09-17T04:07:04.249Z,7.00
2022-09-17T04:09:33.457Z,8.00
2022-09-17T04:12:03.804Z,6.80
2022-09-17T04:14:33.255Z,5.00
2022-09-17T04:17:01.290Z,4.95
2022-09-17T04:19:29.280Z,4.32
2022-09-17T04:21:57.227Z,4.03
2022-09-17T04:24:25.394Z,3.47
2022-09-17T04:26:53.367Z,3.67
2022-09-17T04:29:21.488Z,4.32
2022-09-17T04:31:50.791Z,5.47
2022-09-17T04:34:18.928Z,3.70
2022-09-17T04:36:46.979Z,3.63
2022-09-17T04:39:15.071Z,4.43
2022-09-17T04:41:43.039Z,3.70
2022-09-17T04:44:11.108Z,5.30
2022-09-17T04:46:39.087Z,3.92
2022-09-17T04:49:08.801Z,3.75
2022-09-17T04:51:37.396Z,4.75
2022-09-17T04:54:05.753Z,4.03
2022-09-17T04:56:34.135Z,3.90
2022-09-17T04:59:02.398Z,4.20
2022-09-17T05:01:30.492Z,4.82
2022-09-17T05:03:58.869Z,5.90
2022-09-17T05:06:28.215Z,5.40
2022-09-17T05:08:56.397Z,6.38
2022-09-17T05:11:24.452Z,5.85
2022-09-17T05:13:52.725Z,5.38
2022-09-17T05:16:20.905Z,5.95
2022-09-17T05:18:49.698Z,6.88
2022-09-17T05:21:17.685Z,10.75
2022-09-17T05:23:47.969Z,11.70
2022-09-17T05:26:16.673Z,16.08
2022-09-17T05:28:44.689Z,6.60
2022-09-17T05:31:15.999Z,4.78
2022-09-17T05:33:44.010Z,4.45
2022-09-17T05:36:12.319Z,4.65
2022-09-17T05:38:40.338Z,5.22
2022-09-17T05:41:12.787Z,5.07
2022-09-17T05:43:40.791Z,6.22
2022-09-17T05:46:09.100Z,4.53
2022-09-17T05:48:37.269Z,5.28
2022-09-17T05:51:05.630Z,5.53
2022-09-17T05:53:33.612Z,5.07
2022-09-17T05:56:01.709Z,4.75
2022-09-17T05:58:31.916Z,4.68
2022-09-17T06:01:02.262Z,5.90
2022-09-17T06:03:30.397Z,5.00
2022-09-17T06:06:00.241Z,4.75
2022-09-17T06:08:30.642Z,3.72
2022-09-17T06:11:02.241Z,3.92
2022-09-17T06:13:32.459Z,3.35
2022-09-17T06:16:01.012Z,4.00
2022-09-17T06:18:30.938Z,3.45
2022-09-17T06:21:00.613Z,2.85
2022-09-17T06:23:29.772Z,3.17
2022-09-17T06:25:59.351Z,2.83
2022-09-17T06:28:28.267Z,3.00
2022-09-17T06:31:01.512Z,3.50
2022-09-17T06:33:29.534Z,4.53
2022-09-17T06:36:00.726Z,3.28
2022-09-17T06:38:29.043Z,2.70
2022-09-17T06:40:57.192Z,2.53
2022-09-17T06:43:25.977Z,3.30
2022-09-17T06:45:54.627Z,2.80
2022-09-17T06:48:24.765Z,3.50
2022-09-17T06:50:54.418Z,2.90
2022-09-17T06:53:22.993Z,3.00
2022-09-17T06:55:51.401Z,3.33
2022-09-17T06:58:19.416Z,2.92
2022-09-17T07:00:47.860Z,2.00
2022-09-17T07:03:18.941Z,3.20
2022-09-17T07:05:51.975Z,2.80
2022-09-17T07:08:19.948Z,2.80
2022-09-17T07:10:50.020Z,4.35
2022-09-17T07:13:18.131Z,3.58
2022-09-17T07:15:53.728Z,2.70
2022-09-17T07:18:22.491Z,3.33
2022-09-17T07:20:56.117Z,2.28
2022-09-17T07:23:25.563Z,2.95
2022-09-17T07:25:54.787Z,3.20
2022-09-17T07:28:23.674Z,3.65
2022-09-17T07:30:52.668Z,3.17
2022-09-17T07:33:24.553Z,3.40
2022-09-17T07:35:58.354Z,2.88
2022-09-17T07:38:27.210Z,2.80
2022-09-17T07:40:59.859Z,2.58
2022-09-17T07:43:29.521Z,2.42
2022-09-17T07:45:58.869Z,3.25
2022-09-17T07:48:28.029Z,2.90
2022-09-17T07:50:58.085Z,2.58
2022-09-17T07:53:33.082Z,2.35
2022-09-17T07:56:01.842Z,2.33
2022-09-17T07:58:32.291Z,2.75
2022-09-17T08:01:03.647Z,2.33
2022-09-17T08:03:31.942Z,2.83
2022-09-17T08:06:06.159Z,2.45
2022-09-17T08:08:35.866Z,2.60
2022-09-17T08:11:04.696Z,2.50
2022-09-17T08:13:33.350Z,2.88
2022-09-17T08:16:02.031Z,3.05
2022-09-17T08:21:20.308Z,2.65
2022-09-17T08:23:49.249Z,2.72
2022-09-17T08:26:18.985Z,2.10
2022-09-17T08:28:48.388Z,2.35
2022-09-17T08:31:17.698Z,2.28
2022-09-17T08:33:46.675Z,2.55
2022-09-17T08:36:16.737Z,1.80
2022-09-17T08:41:57.343Z,3.20
2022-09-17T08:44:33.250Z,2.88
2022-09-17T08:47:06.052Z,4.43
2022-09-17T08:49:37.329Z,1.95
2022-09-17T08:52:28.337Z,1.90
2022-09-17T08:55:06.504Z,1.40
2022-09-17T08:57:42.202Z,1.23
2022-09-17T09:00:14.629Z,1.52
2022-09-17T09:03:00.304Z,1.63
2022-09-17T09:08:27.291Z,2.55
2022-09-17T09:10:58.450Z,2.08
2022-09-17T09:13:30.110Z,2.20
2022-09-17T09:16:01.160Z,2.10
2022-09-17T09:18:32.088Z,2.30
2022-09-17T09:21:08.959Z,2.42
2022-09-17T09:23:46.601Z,2.40
2022-09-17T09:26:19.737Z,2.53
2022-09-17T09:29:05.923Z,2.13
2022-09-17T09:31:44.349Z,1.73
2022-09-17T09:34:14.097Z,1.58
2022-09-17T09:36:42.051Z,1.60
2022-09-17T09:39:18.242Z,1.52
2022-09-17T09:41:54.254Z,1.85
2022-09-17T09:44:25.118Z,1.52
2022-09-17T09:47:26.407Z,1.92
2022-09-17T09:50:08.145Z,2.17
2022-09-17T09:52:52.685Z,1.88
2022-09-17T09:55:52.035Z,4.28
2022-09-17T09:58:32.217Z,4.32
2022-09-17T10:01:00.285Z,1.88
2022-09-17T10:03:32.212Z,1.60
2022-09-17T10:06:02.527Z,1.60
2022-09-17T10:08:32.815Z,1.88
2022-09-17T10:11:02.972Z,1.10
2022-09-17T10:13:35.603Z,1.50
2022-09-17T10:16:26.241Z,1.38
2022-09-17T10:19:14.361Z,1.80
2022-09-17T10:21:43.816Z,1.55
2022-09-17T10:24:23.843Z,1.23
2022-09-17T10:26:53.223Z,1.77
2022-09-17T10:29:22.845Z,2.80
2022-09-17T10:31:52.513Z,2.00
2022-09-17T10:34:22.634Z,1.60
2022-09-17T10:36:51.321Z,1.55
2022-09-17T10:39:42.585Z,1.10
2022-09-17T10:42:15.381Z,1.10
2022-09-17T10:44:54.570Z,1.30
2022-09-17T10:47:26.330Z,1.10
2022-09-17T10:49:57.388Z,1.15
2022-09-17T10:52:28.240Z,1.33
2022-09-17T10:55:14.820Z,1.30
2022-09-17T10:58:05.544Z,5.75
2022-09-17T11:00:45.227Z,8.38
2022-09-17T11:04:04.407Z,2.70
2022-09-17T11:06:52.749Z,2.40
2022-09-17T11:09:34.065Z,2.67
2022-09-17T11:12:16.530Z,3.88
2022-09-17T11:14:52.255Z,3.40
2022-09-17T11:17:50.172Z,2.75
2022-09-17T11:20:30.720Z,1.75
2022-09-17T11:23:09.116Z,2.72
2022-09-17T11:25:47.515Z,1.63
2022-09-17T11:28:31.536Z,1.63
2022-09-17T11:31:12.159Z,1.63
2022-09-17T11:33:53.696Z,1.70
2022-09-17T11:36:27.208Z,1.60
2022-09-17T11:38:58.666Z,1.97
2022-09-17T11:41:32.302Z,2.15
2022-09-17T11:44:09.253Z,1.98
2022-09-17T11:46:43.095Z,2.20
2022-09-17T11:49:19.258Z,2.13
2022-09-17T11:51:51.041Z,2.42
2022-09-17T11:54:24.899Z,2.78
2022-09-17T11:56:58.689Z,1.92
2022-09-17T11:59:31.792Z,2.28
2022-09-17T12:02:03.342Z,2.03
2022-09-17T12:04:42.231Z,2.47
2022-09-17T12:07:20.547Z,3.08
2022-09-17T12:10:00.724Z,2.20
2022-09-17T12:12:49.126Z,1.48
2022-09-17T12:15:22.976Z,1.95
2022-09-17T12:18:20.487Z,4.93
2022-09-17T12:23:24.265Z,1.65
2022-09-17T12:25:57.887Z,1.80
2022-09-17T12:28:34.005Z,1.60
2022-09-17T12:31:09.965Z,1.77
2022-09-17T12:33:43.363Z,1.50
2022-09-17T12:36:29.058Z,1.73
2022-09-17T12:39:21.665Z,1.80
2022-09-17T12:41:57.968Z,1.60
2022-09-17T12:44:47.011Z,2.13
2022-09-17T12:47:38.861Z,2.28
2022-09-17T12:50:20.356Z,2.08
2022-09-17T12:53:03.609Z,2.33
2022-09-17T12:55:48.834Z,2.78
2022-09-17T12:58:29.827Z,2.65
2022-09-17T13:01:04.301Z,2.92
2022-09-17T13:03:36.544Z,2.63
2022-09-17T13:06:31.221Z,3.13
2022-09-17T13:09:19.795Z,2.97
2022-09-17T13:12:05.472Z,2.88
2022-09-17T13:14:59.853Z,2.60
2022-09-17T13:17:36.304Z,2.50
2022-09-17T13:20:14.254Z,2.63
2022-09-17T13:22:46.447Z,2.42
2022-09-17T13:25:18.558Z,3.03
2022-09-17T13:27:46.907Z,4.20
2022-09-17T13:30:16.184Z,4.30
2022-09-17T13:32:55.098Z,3.50
2022-09-17T13:35:51.598Z,1.95
2022-09-17T13:38:23.913Z,1.90
2022-09-17T13:41:14.059Z,1.73
2022-09-17T13:43:47.810Z,1.45
2022-09-17T13:46:23.994Z,1.52
2022-09-17T13:48:57.274Z,1.90
2022-09-17T13:51:47.685Z,1.58
2022-09-17T13:54:17.643Z,1.77
2022-09-17T13:56:50.607Z,2.10
2022-09-17T13:59:22.720Z,1.95
2022-09-17T14:02:19.406Z,1.77
2022-09-17T14:04:50.152Z,1.83
2022-09-17T14:07:47.165Z,2.75
2022-09-17T14:10:41.411Z,1.85
2022-09-17T14:13:42.417Z,2.35
2022-09-17T14:16:35.797Z,2.45
2022-09-17T14:19:18.587Z,2.10
2022-09-17T14:22:00.551Z,2.65
2022-09-17T14:24:37.799Z,2.42
2022-09-17T14:27:31.699Z,2.70
2022-09-17T14:30:19.612Z,2.10
2022-09-17T14:33:02.763Z,2.33
2022-09-17T14:35:35.319Z,2.95
2022-09-17T14:38:12.690Z,2.55
2022-09-17T14:40:45.406Z,2.97
2022-09-17T14:43:21.222Z,2.45
2022-09-17T14:45:53.997Z,2.47
2022-09-17T14:48:30.085Z,2.83
2022-09-17T14:51:23.572Z,2.83
2022-09-17T14:54:10.204Z,3.58
2022-09-17T14:56:55.182Z,3.58
2022-09-17T14:59:33.417Z,5.72
2022-09-17T15:02:03.016Z,7.85
2022-09-17T15:04:32.363Z,3.55
2022-09-17T15:07:10.554Z,3.17
2022-09-17T15:09:38.882Z,3.50
2022-09-17T15:12:08.717Z,4.15
2022-09-17T15:14:39.875Z,3.55
2022-09-17T15:17:16.188Z,2.38
2022-09-17T15:19:50.184Z,3.00
2022-09-17T15:22:22.158Z,3.03
2022-09-17T15:24:54.202Z,2.70
2022-09-17T15:27:26.913Z,2.33
2022-09-17T15:29:59.460Z,2.58
2022-09-17T15:32:29.325Z,2.30
2022-09-17T15:35:21.929Z,2.45
2022-09-17T15:38:11.984Z,3.33
2022-09-17T15:40:42.033Z,2.50
2022-09-17T15:43:18.587Z,2.22
2022-09-17T15:45:46.788Z,2.63
2022-09-17T15:48:34.886Z,2.75
2022-09-17T15:51:04.955Z,3.05
2022-09-17T15:53:34.029Z,2.42
2022-09-17T15:56:06.646Z,2.22
2022-09-17T15:58:38.761Z,2.58
2022-09-17T16:01:54.014Z,3.25
2022-09-17T16:04:29.278Z,2.60
2022-09-17T16:07:03.404Z,2.47
2022-09-17T16:12:07.983Z,2.10
2022-09-17T16:14:35.926Z,3.20
2022-09-17T16:17:23.126Z,3.30
2022-09-17T16:19:53.039Z,2.58
2022-09-17T16:22:22.546Z,3.08
2022-09-17T16:24:50.703Z,2.80
2022-09-17T16:27:22.879Z,2.53
2022-09-17T16:29:53.280Z,2.55
2022-09-17T16:32:21.405Z,2.30
2022-09-17T16:34:49.349Z,1.85
2022-09-17T16:37:18.824Z,2.03
2022-09-17T16:39:46.832Z,1.88
2022-09-17T16:42:15.155Z,2.03
2022-09-17T16:44:43.188Z,2.10
2022-09-17T16:47:11.255Z,1.67
2022-09-17T16:49:39.180Z,4.53
2022-09-17T16:52:07.523Z,5.95
2022-09-17T16:54:37.108Z,2.40
2022-09-17T16:57:05.549Z,6.15
2022-09-17T16:59:33.577Z,3.17
2022-09-17T17:02:02.351Z,3.28
2022-09-17T17:04:30.317Z,2.88
2022-09-17T17:06:58.479Z,3.13
2022-09-17T17:09:26.539Z,3.50
2022-09-17T17:11:56.078Z,2.67
2022-09-17T17:14:24.182Z,2.00
2022-09-17T17:16:52.367Z,1.90
2022-09-17T17:19:20.336Z,2.50
2022-09-17T17:21:51.337Z,2.53
2022-09-17T17:24:19.887Z,2.65
2022-09-17T17:26:48.948Z,2.75
2022-09-17T17:29:19.158Z,2.28
2022-09-17T17:31:49.464Z,2.95
2022-09-17T17:34:18.099Z,2.58
2022-09-17T17:36:46.052Z,3.00
2022-09-17T17:39:14.078Z,2.53
2022-09-17T17:41:42.122Z,2.95
2022-09-17T17:44:12.588Z,2.85
2022-09-17T17:46:42.581Z,2.38
2022-09-17T17:49:10.725Z,3.00
2022-09-17T17:51:38.823Z,3.05
2022-09-17T17:54:07.949Z,3.20
2022-09-17T17:56:36.059Z,5.35
2022-09-17T17:59:04.112Z,5.05
2022-09-17T18:01:35.017Z,3.88
2022-09-17T18:04:07.885Z,3.28
2022-09-17T18:06:36.137Z,3.50
2022-09-17T18:09:08.326Z,3.78
2022-09-17T18:11:36.954Z,3.63
2022-09-17T18:14:05.102Z,3.60
2022-09-17T18:16:33.753Z,4.90
2022-09-17T18:19:01.884Z,3.10
2022-09-17T18:21:31.376Z,3.20
2022-09-17T18:23:59.742Z,3.53
2022-09-17T18:26:29.238Z,3.22
2022-09-17T18:28:57.532Z,2.97
2022-09-17T18:31:28.047Z,3.70
2022-09-17T18:34:00.593Z,2.83
2022-09-17T18:36:35.496Z,3.58
2022-09-17T18:39:33.144Z,4.22
2022-09-17T18:41:54.187Z,3.13
2022-09-17T18:44:22.629Z,3.97
2022-09-17T18:46:51.472Z,3.75
2022-09-17T18:49:20.443Z,4.40
2022-09-17T18:51:50.110Z,4.32
2022-09-17T18:54:18.103Z,4.13
2022-09-17T18:56:46.216Z,3.78
2022-09-17T18:59:14.147Z,3.78
2022-09-17T19:01:42.592Z,3.30
2022-09-17T19:04:11.239Z,4.07
2022-09-17T19:06:39.456Z,15.20
2022-09-17T19:09:11.585Z,9.57
2022-09-17T19:11:39.730Z,5.32
2022-09-17T19:14:10.308Z,7.72
2022-09-17T19:16:41.306Z,5.95
2022-09-17T19:19:09.935Z,8.85
2022-09-17T19:21:37.900Z,9.65
2022-09-17T19:24:06.487Z,4.95
2022-09-17T19:26:35.925Z,5.35
2022-09-17T19:29:04.538Z,5.78
2022-09-17T19:31:32.713Z,8.80
2022-09-17T19:34:00.988Z,7.28
2022-09-17T19:36:29.023Z,6.53
2022-09-17T19:38:58.905Z,4.18
2022-09-17T19:41:27.222Z,4.28
2022-09-17T19:43:57.183Z,4.28
2022-09-17T19:46:26.954Z,4.35
2022-09-17T19:48:57.096Z,4.40
2022-09-17T19:51:28.277Z,4.30
2022-09-17T19:53:59.441Z,4.40
2022-09-17T19:56:28.375Z,4.82
2022-09-17T19:59:00.143Z,9.35
2022-09-17T20:01:28.434Z,7.55
2022-09-17T20:03:56.528Z,5.78
2022-09-17T20:06:24.596Z,5.38
2022-09-17T20:08:54.454Z,3.83
2022-09-17T20:11:24.774Z,4.43
2022-09-17T20:13:59.527Z,5.32
2022-09-17T20:16:27.638Z,4.22
2022-09-17T20:18:55.871Z,3.75
2022-09-17T20:21:26.447Z,3.10
2022-09-17T20:23:55.470Z,3.45
2022-09-17T20:26:24.017Z,3.80
2022-09-17T20:28:53.035Z,3.92
2022-09-17T20:31:25.056Z,7.28
2022-09-17T20:33:54.227Z,11.98
2022-09-17T20:36:25.460Z,14.10
2022-09-17T20:39:22.052Z,11.05
2022-09-17T20:41:43.218Z,7.32
2022-09-17T20:44:11.192Z,5.47
2022-09-17T20:46:40.735Z,5.63
2022-09-17T20:49:08.784Z,4.10
2022-09-17T20:51:36.857Z,4.07
2022-09-17T20:54:05.452Z,5.30
2022-09-17T20:56:35.203Z,5.05
2022-09-17T20:59:12.993Z,4.85
2022-09-17T21:01:45.197Z,4.20
2022-09-17T21:04:16.001Z,3.40
2022-09-17T21:06:44.828Z,4.50
2022-09-17T21:09:16.095Z,3.63
2022-09-17T21:11:45.477Z,2.53
2022-09-17T21:14:15.528Z,3.38
2022-09-17T21:16:45.251Z,2.72
2022-09-17T21:19:15.787Z,2.70
2022-09-17T21:21:44.190Z,3.92
2022-09-17T21:24:12.484Z,2.92
2022-09-17T21:26:40.562Z,3.33
2022-09-17T21:29:08.608Z,3.83
2022-09-17T21:31:38.092Z,2.55
2022-09-17T21:34:11.255Z,2.85
2022-09-17T21:36:42.105Z,2.45
2022-09-17T21:39:13.005Z,2.33
2022-09-17T21:41:42.803Z,2.72
2022-09-17T21:44:12.399Z,2.45
2022-09-17T21:46:42.178Z,2.78
2022-09-17T21:49:13.479Z,2.53
2022-09-17T21:51:43.443Z,3.33
2022-09-17T21:54:13.714Z,2.97
2022-09-17T21:56:41.876Z,2.45
2022-09-17T21:59:11.469Z,2.90
2022-09-17T22:01:43.813Z,2.17
2022-09-17T22:04:16.457Z,3.58
2022-09-17T22:06:46.150Z,2.10
2022-09-17T22:09:17.693Z,2.63
2022-09-17T22:11:47.431Z,2.35
2022-09-17T22:14:19.178Z,2.90
2022-09-17T22:16:49.515Z,2.08
2022-09-17T22:19:20.143Z,2.67
2022-09-17T22:21:51.427Z,2.30
2022-09-17T22:24:20.733Z,2.72
2022-09-17T22:26:56.558Z,3.33
2022-09-17T22:29:26.515Z,2.50
2022-09-17T22:31:54.652Z,2.75
2022-09-17T22:34:25.805Z,2.10
2022-09-17T22:36:54.041Z,2.97
2022-09-17T22:39:22.842Z,2.40
2022-09-17T22:41:51.215Z,2.38
2022-09-17T22:44:20.723Z,2.13
2022-09-17T22:46:50.756Z,2.40
2022-09-17T22:49:19.525Z,2.20
2022-09-17T22:51:48.981Z,2.92
2022-09-17T22:54:18.792Z,2.70
2022-09-17T22:56:48.026Z,2.67
2022-09-17T22:59:18.157Z,2.40
2022-09-17T23:01:46.490Z,2.42
2022-09-17T23:04:14.489Z,2.67
2022-09-17T23:06:43.102Z,2.33
2022-09-17T23:09:13.657Z,2.90
2022-09-17T23:11:42.136Z,3.25
2022-09-17T23:14:12.829Z,4.15
2022-09-17T23:16:42.805Z,3.03
2022-09-17T23:19:11.747Z,2.50
2022-09-17T23:21:40.342Z,2.90
2022-09-17T23:24:09.036Z,2.78
2022-09-17T23:26:38.462Z,2.30
2022-09-17T23:29:06.898Z,2.53
2022-09-17T23:31:35.878Z,2.97
2022-09-17T23:34:06.066Z,2.58
2022-09-17T23:36:36.668Z,2.30
2022-09-17T23:39:06.422Z,2.83
2022-09-17T23:41:36.250Z,2.53
2022-09-17T23:44:12.091Z,2.13
2022-09-17T23:46:40.529Z,2.60
2022-09-17T23:49:08.610Z,2.40
2022-09-17T23:51:37.695Z,2.20
2022-09-17T23:54:07.278Z,2.63
2022-09-17T23:56:36.010Z,2.42
2022-09-17T23:59:07.540Z,3.20
